createdAt,value
2018-07-11T00:00:39.573Z,85.10
2018-07-11T00:05:44.345Z,85.70
2018-07-11T00:10:49.207Z,85.30
2018-07-11T00:15:53.946Z,85.30
2018-07-11T00:20:58.765Z,84.80
2018-07-11T00:26:04.353Z,84.90
2018-07-11T00:36:13.708Z,84.60
2018-07-11T00:41:18.804Z,84.90
2018-07-11T00:46:23.641Z,85.00
2018-07-11T00:51:29.094Z,85.50
2018-07-11T00:56:34.006Z,86.00
2018-07-11T01:01:40.124Z,86.60
2018-07-11T01:06:45.149Z,87.00
2018-07-11T01:11:50.113Z,87.40
2018-07-11T01:16:55.046Z,87.00
2018-07-11T01:22:03.711Z,87.00
2018-07-11T01:27:08.498Z,86.10
2018-07-11T01:32:13.461Z,87.00
2018-07-11T01:37:18.935Z,86.30
2018-07-11T01:42:24.370Z,85.60
2018-07-11T01:47:29.215Z,85.10
2018-07-11T01:52:45.012Z,86.10
2018-07-11T01:57:50.660Z,86.50
2018-07-11T02:02:56.128Z,86.00
2018-07-11T02:08:00.974Z,85.70
2018-07-11T02:13:05.723Z,85.90
2018-07-11T02:18:10.552Z,86.40
2018-07-11T02:23:15.746Z,86.60
2018-07-11T02:28:22.601Z,86.80
2018-07-11T02:33:27.344Z,86.80
2018-07-11T02:38:32.312Z,86.80
2018-07-11T02:43:37.202Z,87.00
2018-07-11T02:48:42.197Z,87.30
2018-07-11T02:53:47.116Z,87.90
2018-07-11T02:58:52.255Z,87.20
2018-07-11T03:03:56.993Z,87.30
2018-07-11T03:09:01.755Z,86.90
2018-07-11T03:14:06.717Z,87.60
2018-07-11T03:19:11.566Z,87.40
2018-07-11T03:24:17.938Z,87.90
2018-07-11T03:29:22.882Z,88.30
2018-07-11T03:34:27.815Z,88.40
2018-07-11T03:39:33.493Z,89.10
2018-07-11T03:44:38.557Z,88.60
2018-07-11T03:49:43.353Z,88.50
2018-07-11T03:54:48.201Z,88.10
2018-07-11T03:59:53.677Z,88.00
2018-07-11T04:04:58.701Z,88.50
2018-07-11T04:10:03.572Z,88.50
2018-07-11T04:15:08.238Z,89.00
2018-07-11T04:20:13.580Z,89.80
2018-07-11T04:25:18.600Z,89.30
2018-07-11T04:30:23.422Z,89.20
2018-07-11T04:35:28.409Z,89.40
2018-07-11T04:40:33.111Z,90.30
2018-07-11T04:45:37.990Z,90.10
2018-07-11T04:50:42.667Z,89.60
2018-07-11T04:55:47.590Z,90.00
2018-07-11T05:00:52.152Z,89.00
2018-07-11T05:05:57.204Z,89.00
2018-07-11T05:11:01.995Z,88.50
2018-07-11T05:16:07.079Z,89.00
2018-07-11T05:21:11.860Z,88.20
2018-07-11T05:26:16.732Z,88.00
2018-07-11T05:31:21.913Z,88.30
2018-07-11T05:36:27.885Z,88.60
2018-07-11T05:41:32.806Z,87.90
2018-07-11T05:46:37.639Z,88.00
2018-07-11T05:51:42.449Z,87.90
2018-07-11T05:56:47.226Z,87.00
2018-07-11T06:01:52.082Z,87.10
2018-07-11T06:06:57.080Z,87.90
2018-07-11T06:12:01.886Z,87.50
2018-07-11T06:17:06.818Z,87.60
2018-07-11T06:22:11.662Z,87.00
2018-07-11T06:27:16.397Z,88.40
2018-07-11T06:32:21.225Z,87.40
2018-07-11T06:37:26.281Z,85.90
2018-07-11T06:42:30.996Z,86.00
2018-07-11T06:47:35.665Z,86.10
2018-07-11T06:52:40.315Z,85.10
2018-07-11T06:57:45.122Z,86.20
2018-07-11T07:02:50.007Z,86.70
2018-07-11T07:07:54.936Z,85.90
2018-07-11T07:12:59.727Z,86.00
2018-07-11T07:18:04.774Z,85.10
2018-07-11T07:23:09.350Z,84.50
2018-07-11T07:28:14.121Z,84.50
2018-07-11T07:33:19.204Z,85.10
2018-07-11T07:38:24.023Z,85.40
2018-07-11T07:43:28.937Z,85.00
2018-07-11T07:48:33.691Z,84.00
2018-07-11T07:53:38.749Z,84.30
2018-07-11T07:58:43.780Z,83.80
2018-07-11T08:03:48.873Z,85.30
2018-07-11T08:08:53.772Z,84.00
2018-07-11T08:13:58.498Z,84.30
2018-07-11T08:19:03.376Z,84.30
2018-07-11T08:24:19.046Z,83.60
2018-07-11T08:29:34.959Z,83.00
2018-07-11T08:36:54.114Z,81.10
2018-07-11T08:42:12.861Z,81.30
2018-07-11T08:48:34.247Z,82.40
2018-07-11T08:55:58.425Z,81.10
2018-07-11T09:01:43.856Z,82.10
2018-07-11T09:07:00.148Z,82.70
2018-07-11T09:16:23.161Z,82.50
2018-07-11T09:21:44.984Z,79.90
2018-07-11T09:26:49.743Z,80.60
2018-07-11T09:31:54.383Z,81.40
2018-07-11T09:36:59.107Z,80.80
2018-07-11T09:42:04.056Z,81.60
2018-07-11T09:47:13.745Z,78.10
2018-07-11T09:52:18.616Z,79.00
2018-07-11T09:57:24.518Z,78.90
2018-07-11T10:02:29.275Z,77.70
2018-07-11T10:07:33.977Z,81.00
2018-07-11T10:12:38.843Z,79.50
2018-07-11T10:17:43.718Z,79.90
2018-07-11T10:22:48.665Z,79.20
2018-07-11T10:28:24.286Z,78.50
2018-07-11T10:33:29.132Z,78.70
2018-07-11T10:38:34.108Z,77.40
2018-07-11T10:43:39.187Z,77.30
2018-07-11T10:48:44.608Z,75.20
2018-07-11T10:53:49.656Z,74.50
2018-07-11T10:58:54.502Z,78.00
2018-07-11T11:04:00.560Z,76.60
2018-07-11T11:09:06.545Z,74.80
2018-07-11T11:14:11.503Z,75.70
2018-07-11T11:19:16.210Z,78.10
2018-07-11T11:24:21.154Z,75.90
2018-07-11T11:29:26.196Z,77.00
2018-07-11T11:34:31.026Z,76.50
2018-07-11T11:39:35.907Z,77.20
2018-07-11T11:44:40.568Z,75.50
2018-07-11T11:49:45.612Z,74.70
2018-07-11T11:54:50.297Z,72.70
2018-07-11T11:59:55.134Z,70.50
2018-07-11T12:05:00.028Z,67.00
2018-07-11T12:10:04.818Z,66.10
2018-07-11T12:15:09.626Z,63.40
2018-07-11T12:25:18.708Z,67.00
2018-07-11T12:30:23.738Z,66.70
2018-07-11T12:35:28.688Z,64.60
2018-07-11T12:40:34.412Z,62.40
2018-07-11T12:45:39.696Z,60.80
2018-07-11T12:50:44.572Z,65.90
2018-07-11T12:55:49.373Z,66.10
2018-07-11T13:00:54.144Z,63.40
2018-07-11T13:05:59.062Z,67.30
2018-07-11T13:11:03.972Z,66.20
2018-07-11T13:16:08.946Z,64.30
2018-07-11T13:21:13.677Z,65.20
2018-07-11T13:26:18.662Z,61.60
2018-07-11T13:31:24.083Z,58.40
2018-07-11T13:36:29.034Z,60.10
2018-07-11T13:41:33.875Z,61.10
2018-07-11T13:51:44.689Z,60.30
2018-07-11T13:56:49.252Z,59.60
2018-07-11T14:01:55.150Z,56.30
2018-07-11T14:07:01.504Z,56.70
2018-07-11T14:12:06.417Z,57.10
2018-07-11T14:17:11.373Z,56.70
2018-07-11T14:22:16.229Z,55.50
2018-07-11T14:27:22.097Z,55.70
2018-07-11T14:32:27.302Z,54.70
2018-07-11T14:37:32.762Z,57.00
2018-07-11T14:42:37.508Z,55.80
2018-07-11T14:47:47.748Z,57.00
2018-07-11T14:52:53.593Z,54.60
2018-07-11T14:57:58.461Z,53.30
2018-07-11T15:03:03.677Z,55.70
2018-07-11T15:08:08.543Z,56.20
2018-07-11T15:13:13.761Z,57.80
2018-07-11T15:18:18.731Z,55.50
2018-07-11T15:23:23.868Z,54.10
2018-07-11T15:28:28.884Z,55.00
2018-07-11T15:33:34.292Z,53.60
2018-07-11T15:38:39.208Z,52.40
2018-07-11T15:43:44.843Z,53.80
2018-07-11T15:48:50.230Z,54.80
2018-07-11T15:53:55.445Z,54.30
2018-07-11T15:59:06.872Z,54.80
2018-07-11T16:04:11.821Z,55.20
2018-07-11T16:09:17.052Z,54.30
2018-07-11T16:14:22.900Z,54.70
2018-07-11T16:19:27.837Z,55.70
2018-07-11T16:24:32.680Z,54.40
2018-07-11T16:29:37.610Z,55.60
2018-07-11T16:34:42.576Z,59.30
2018-07-11T16:39:47.593Z,57.20
2018-07-11T16:44:52.840Z,60.60
2018-07-11T16:49:57.848Z,61.30
2018-07-11T16:55:02.895Z,61.50
2018-07-11T17:00:09.109Z,63.00
2018-07-11T17:05:20.543Z,65.40
2018-07-11T17:10:25.961Z,65.90
2018-07-11T17:15:32.996Z,65.30
2018-07-11T17:20:38.186Z,66.00
2018-07-11T17:25:43.752Z,66.60
2018-07-11T17:30:48.638Z,67.00
2018-07-11T17:35:54.512Z,66.80
2018-07-11T17:41:01.866Z,67.80
2018-07-11T17:46:07.670Z,68.50
2018-07-11T17:52:23.083Z,68.00
2018-07-11T17:57:44.987Z,68.80
2018-07-11T18:02:56.472Z,69.40
2018-07-11T18:08:08.373Z,69.80
2018-07-11T18:13:27.296Z,69.80
2018-07-11T18:18:59.570Z,70.50
2018-07-11T18:24:11.226Z,70.90
2018-07-11T18:34:20.302Z,70.20
2018-07-11T18:39:28.384Z,70.80
2018-07-11T18:51:05.200Z,71.70
2018-07-11T18:56:15.971Z,72.10
2018-07-11T19:02:36.206Z,72.40
2018-07-11T19:07:58.021Z,73.00
2018-07-11T19:18:20.149Z,75.80
2018-07-11T19:23:36.101Z,77.20
2018-07-11T19:28:50.624Z,78.20
2018-07-11T19:35:10.738Z,78.70
2018-07-11T19:40:29.609Z,79.40
2018-07-11T19:45:47.445Z,79.30
2018-07-11T19:51:07.295Z,79.30
2018-07-11T19:56:37.275Z,79.90
2018-07-11T20:01:42.402Z,80.80
2018-07-11T20:06:47.328Z,80.70
2018-07-11T20:11:52.108Z,80.30
2018-07-11T20:16:57.226Z,80.00
2018-07-11T20:22:01.977Z,80.80
2018-07-11T20:27:06.839Z,80.60
2018-07-11T20:32:12.001Z,82.20
2018-07-11T20:37:17.142Z,83.70
2018-07-11T20:42:22.526Z,84.30
2018-07-11T20:47:27.551Z,85.50
2018-07-11T20:52:32.653Z,85.90
2018-07-11T20:57:37.751Z,86.20
2018-07-11T21:02:56.803Z,86.20
2018-07-11T21:09:10.901Z,86.00
2018-07-11T21:16:33.728Z,86.10
2018-07-11T21:21:40.560Z,85.30
2018-07-11T21:26:45.699Z,87.50
2018-07-11T21:31:50.985Z,89.00
2018-07-11T21:36:56.277Z,90.50
2018-07-11T21:42:01.238Z,91.00
2018-07-11T21:47:07.067Z,89.30
2018-07-11T21:52:11.779Z,88.60
2018-07-11T21:57:16.855Z,89.00
2018-07-11T22:02:22.477Z,89.40
2018-07-11T22:07:27.895Z,89.40
2018-07-11T22:12:32.663Z,89.60
2018-07-11T22:17:48.553Z,92.00
2018-07-11T22:22:52.002Z,91.80
2018-07-11T22:27:55.556Z,89.60
2018-07-11T22:32:58.968Z,91.70
2018-07-11T22:38:02.332Z,91.40
2018-07-11T22:43:05.694Z,91.00
2018-07-11T22:48:09.042Z,91.80
2018-07-11T22:53:12.444Z,91.50
2018-07-11T22:58:15.850Z,91.00
2018-07-11T23:03:19.324Z,91.10
2018-07-11T23:08:22.850Z,91.70
2018-07-11T23:13:26.163Z,92.10
2018-07-11T23:18:29.860Z,93.10
2018-07-11T23:23:33.171Z,93.00
2018-07-11T23:28:36.513Z,93.40
2018-07-11T23:33:39.984Z,93.80
2018-07-11T23:38:43.494Z,93.70
2018-07-11T23:43:46.715Z,93.70
2018-07-11T23:48:50.082Z,95.70
2018-07-11T23:53:53.279Z,95.90
2018-07-11T23:58:56.735Z,95.90
